sensor_id;sensor_type;location;lat;lon;timestamp;temperature;humidity
18974;DHT22;9621;48.690;9.466;2023-07-20T00:02:05;18.30;69.00
18974;DHT22;9621;48.690;9.466;2023-07-20T00:04:33;18.30;69.00
18974;DHT22;9621;48.690;9.466;2023-07-20T00:07:00;18.40;68.90
18974;DHT22;9621;48.690;9.466;2023-07-20T00:09:27;18.30;69.00
18974;DHT22;9621;48.690;9.466;2023-07-20T00:11:54;18.30;69.00
18974;DHT22;9621;48.690;9.466;2023-07-20T00:14:22;18.30;69.10
18974;DHT22;9621;48.690;9.466;2023-07-20T00:16:50;18.30;69.10
18974;DHT22;9621;48.690;9.466;2023-07-20T00:19:21;18.30;69.10
18974;DHT22;9621;48.690;9.466;2023-07-20T00:21:48;18.30;68.90
18974;DHT22;9621;48.690;9.466;2023-07-20T00:24:15;18.30;68.70
18974;DHT22;9621;48.690;9.466;2023-07-20T00:26:42;18.30;68.30
18974;DHT22;9621;48.690;9.466;2023-07-20T00:29:09;18.20;68.10
18974;DHT22;9621;48.690;9.466;2023-07-20T00:31:37;18.20;67.70
18974;DHT22;9621;48.690;9.466;2023-07-20T00:34:04;18.20;67.50
18974;DHT22;9621;48.690;9.466;2023-07-20T00:36:31;18.20;67.30
18974;DHT22;9621;48.690;9.466;2023-07-20T00:38:58;18.10;66.80
18974;DHT22;9621;48.690;9.466;2023-07-20T00:41:25;18.00;66.70
18974;DHT22;9621;48.690;9.466;2023-07-20T00:43:54;18.00;66.70
18974;DHT22;9621;48.690;9.466;2023-07-20T00:46:23;18.00;66.40
18974;DHT22;9621;48.690;9.466;2023-07-20T00:48:52;17.90;66.30
18974;DHT22;9621;48.690;9.466;2023-07-20T00:51:20;17.80;66.20
18974;DHT22;9621;48.690;9.466;2023-07-20T00:53:47;17.80;66.10
18974;DHT22;9621;48.690;9.466;2023-07-20T00:56:14;17.70;66.10
18974;DHT22;9621;48.690;9.466;2023-07-20T00:58:41;17.70;65.90
18974;DHT22;9621;48.690;9.466;2023-07-20T01:01:08;17.70;65.80
18974;DHT22;9621;48.690;9.466;2023-07-20T01:03:35;17.60;65.70
18974;DHT22;9621;48.690;9.466;2023-07-20T01:06:09;17.60;65.70
18974;DHT22;9621;48.690;9.466;2023-07-20T01:08:43;17.60;65.60
18974;DHT22;9621;48.690;9.466;2023-07-20T01:11:16;17.50;65.40
18974;DHT22;9621;48.690;9.466;2023-07-20T01:13:43;17.50;65.20
18974;DHT22;9621;48.690;9.466;2023-07-20T01:16:10;17.50;65.40
18974;DHT22;9621;48.690;9.466;2023-07-20T01:18:37;17.40;65.20
18974;DHT22;9621;48.690;9.466;2023-07-20T01:21:09;17.50;65.20
18974;DHT22;9621;48.690;9.466;2023-07-20T01:24:04;17.40;65.30
18974;DHT22;9621;48.690;9.466;2023-07-20T01:26:57;17.40;65.70
18974;DHT22;9621;48.690;9.466;2023-07-20T01:29:43;17.30;65.40
18974;DHT22;9621;48.690;9.466;2023-07-20T01:32:19;17.30;65.70
18974;DHT22;9621;48.690;9.466;2023-07-20T01:34:48;17.20;65.90
18974;DHT22;9621;48.690;9.466;2023-07-20T01:37:16;17.10;66.00
18974;DHT22;9621;48.690;9.466;2023-07-20T01:39:45;17.00;66.20
18974;DHT22;9621;48.690;9.466;2023-07-20T01:42:12;17.00;66.50
18974;DHT22;9621;48.690;9.466;2023-07-20T01:44:39;16.90;67.00
18974;DHT22;9621;48.690;9.466;2023-07-20T01:47:06;16.90;67.50
18974;DHT22;9621;48.690;9.466;2023-07-20T01:49:35;16.80;67.80
18974;DHT22;9621;48.690;9.466;2023-07-20T01:52:02;16.80;68.50
18974;DHT22;9621;48.690;9.466;2023-07-20T01:54:30;16.80;68.40
18974;DHT22;9621;48.690;9.466;2023-07-20T01:56:57;16.70;68.30
18974;DHT22;9621;48.690;9.466;2023-07-20T01:59:24;16.70;68.70
18974;DHT22;9621;48.690;9.466;2023-07-20T02:01:50;16.70;68.70
18974;DHT22;9621;48.690;9.466;2023-07-20T02:04:17;16.70;68.90
18974;DHT22;9621;48.690;9.466;2023-07-20T02:06:45;16.70;69.10
18974;DHT22;9621;48.690;9.466;2023-07-20T02:09:13;16.60;69.30
18974;DHT22;9621;48.690;9.466;2023-07-20T02:11:39;16.60;69.40
18974;DHT22;9621;48.690;9.466;2023-07-20T02:14:06;16.50;69.40
18974;DHT22;9621;48.690;9.466;2023-07-20T02:16:33;16.40;69.70
18974;DHT22;9621;48.690;9.466;2023-07-20T02:19:00;16.30;70.00
18974;DHT22;9621;48.690;9.466;2023-07-20T02:21:27;16.30;70.30
18974;DHT22;9621;48.690;9.466;2023-07-20T02:23:55;16.20;70.40
18974;DHT22;9621;48.690;9.466;2023-07-20T02:26:22;16.10;70.60
18974;DHT22;9621;48.690;9.466;2023-07-20T02:28:49;16.00;71.00
18974;DHT22;9621;48.690;9.466;2023-07-20T02:31:16;16.00;71.70
18974;DHT22;9621;48.690;9.466;2023-07-20T02:33:43;15.80;71.10
18974;DHT22;9621;48.690;9.466;2023-07-20T02:36:10;15.80;71.60
18974;DHT22;9621;48.690;9.466;2023-07-20T02:38:37;15.60;71.70
18974;DHT22;9621;48.690;9.466;2023-07-20T02:41:05;15.50;71.80
18974;DHT22;9621;48.690;9.466;2023-07-20T02:43:32;15.40;72.50
18974;DHT22;9621;48.690;9.466;2023-07-20T02:45:59;15.40;72.60
18974;DHT22;9621;48.690;9.466;2023-07-20T02:48:25;15.30;73.10
18974;DHT22;9621;48.690;9.466;2023-07-20T02:50:52;15.20;73.50
18974;DHT22;9621;48.690;9.466;2023-07-20T02:53:19;15.20;73.60
18974;DHT22;9621;48.690;9.466;2023-07-20T02:55:46;15.00;73.60
18974;DHT22;9621;48.690;9.466;2023-07-20T02:58:15;14.90;73.80
18974;DHT22;9621;48.690;9.466;2023-07-20T03:00:42;14.90;74.60
18974;DHT22;9621;48.690;9.466;2023-07-20T03:03:09;14.80;74.50
18974;DHT22;9621;48.690;9.466;2023-07-20T03:05:36;14.70;74.80
18974;DHT22;9621;48.690;9.466;2023-07-20T03:08:05;14.60;75.00
18974;DHT22;9621;48.690;9.466;2023-07-20T03:10:32;14.50;75.50
18974;DHT22;9621;48.690;9.466;2023-07-20T03:12:59;14.40;75.60
18974;DHT22;9621;48.690;9.466;2023-07-20T03:15:27;14.40;76.00
18974;DHT22;9621;48.690;9.466;2023-07-20T03:17:54;14.30;76.50
18974;DHT22;9621;48.690;9.466;2023-07-20T03:20:21;14.30;76.60
18974;DHT22;9621;48.690;9.466;2023-07-20T03:22:48;14.20;76.80
18974;DHT22;9621;48.690;9.466;2023-07-20T03:25:15;14.10;76.90
18974;DHT22;9621;48.690;9.466;2023-07-20T03:27:43;14.00;77.20
18974;DHT22;9621;48.690;9.466;2023-07-20T03:30:10;14.00;77.20
18974;DHT22;9621;48.690;9.466;2023-07-20T03:32:39;13.90;77.40
18974;DHT22;9621;48.690;9.466;2023-07-20T03:35:06;13.80;77.60
18974;DHT22;9621;48.690;9.466;2023-07-20T03:37:34;13.80;77.80
18974;DHT22;9621;48.690;9.466;2023-07-20T03:40:02;13.80;77.80
18974;DHT22;9621;48.690;9.466;2023-07-20T03:42:30;13.80;78.10
18974;DHT22;9621;48.690;9.466;2023-07-20T03:44:57;13.80;78.10
18974;DHT22;9621;48.690;9.466;2023-07-20T03:47:24;13.70;77.90
18974;DHT22;9621;48.690;9.466;2023-07-20T03:49:52;13.70;78.20
18974;DHT22;9621;48.690;9.466;2023-07-20T03:52:19;13.70;78.70
18974;DHT22;9621;48.690;9.466;2023-07-20T03:54:46;13.70;78.90
18974;DHT22;9621;48.690;9.466;2023-07-20T03:57:12;13.70;79.20
18974;DHT22;9621;48.690;9.466;2023-07-20T03:59:39;13.60;79.40
18974;DHT22;9621;48.690;9.466;2023-07-20T04:02:11;13.60;80.00
18974;DHT22;9621;48.690;9.466;2023-07-20T04:04:38;13.50;80.30
18974;DHT22;9621;48.690;9.466;2023-07-20T04:07:06;13.50;80.50
18974;DHT22;9621;48.690;9.466;2023-07-20T04:09:33;13.40;80.90
18974;DHT22;9621;48.690;9.466;2023-07-20T04:12:00;13.50;81.00
18974;DHT22;9621;48.690;9.466;2023-07-20T04:14:27;13.50;81.30
18974;DHT22;9621;48.690;9.466;2023-07-20T04:16:54;13.60;81.60
18974;DHT22;9621;48.690;9.466;2023-07-20T04:19:21;13.60;81.60
18974;DHT22;9621;48.690;9.466;2023-07-20T04:21:48;13.80;81.60
18974;DHT22;9621;48.690;9.466;2023-07-20T04:24:16;13.90;81.70
18974;DHT22;9621;48.690;9.466;2023-07-20T04:26:43;14.10;81.80
18974;DHT22;9621;48.690;9.466;2023-07-20T04:29:10;14.30;81.40
18974;DHT22;9621;48.690;9.466;2023-07-20T04:31:37;14.50;81.30
18974;DHT22;9621;48.690;9.466;2023-07-20T04:34:04;14.70;81.20
18974;DHT22;9621;48.690;9.466;2023-07-20T04:36:31;14.90;81.10
18974;DHT22;9621;48.690;9.466;2023-07-20T04:38:57;15.20;80.80
18974;DHT22;9621;48.690;9.466;2023-07-20T04:41:26;15.40;80.60
18974;DHT22;9621;48.690;9.466;2023-07-20T04:43:52;15.70;80.30
18974;DHT22;9621;48.690;9.466;2023-07-20T04:46:19;15.90;79.70
18974;DHT22;9621;48.690;9.466;2023-07-20T04:48:47;16.10;79.10
18974;DHT22;9621;48.690;9.466;2023-07-20T04:51:14;16.40;78.60
18974;DHT22;9621;48.690;9.466;2023-07-20T04:53:42;16.60;78.30
18974;DHT22;9621;48.690;9.466;2023-07-20T04:56:09;16.90;78.20
18974;DHT22;9621;48.690;9.466;2023-07-20T04:58:37;17.20;77.80
18974;DHT22;9621;48.690;9.466;2023-07-20T05:01:04;17.40;77.00
18974;DHT22;9621;48.690;9.466;2023-07-20T05:03:31;17.70;76.80
18974;DHT22;9621;48.690;9.466;2023-07-20T05:05:58;17.90;76.20
18974;DHT22;9621;48.690;9.466;2023-07-20T05:08:25;18.20;75.60
18974;DHT22;9621;48.690;9.466;2023-07-20T05:10:52;18.40;75.20
18974;DHT22;9621;48.690;9.466;2023-07-20T05:13:20;18.70;74.70
18974;DHT22;9621;48.690;9.466;2023-07-20T05:15:51;18.90;73.70
18974;DHT22;9621;48.690;9.466;2023-07-20T05:18:19;19.00;72.60
18974;DHT22;9621;48.690;9.466;2023-07-20T05:20:46;19.10;72.40
18974;DHT22;9621;48.690;9.466;2023-07-20T05:23:13;19.10;72.50
18974;DHT22;9621;48.690;9.466;2023-07-20T05:25:40;19.10;72.70
18974;DHT22;9621;48.690;9.466;2023-07-20T05:28:07;19.10;72.50
18974;DHT22;9621;48.690;9.466;2023-07-20T05:30:34;19.00;72.40
18974;DHT22;9621;48.690;9.466;2023-07-20T05:33:03;19.00;72.30
18974;DHT22;9621;48.690;9.466;2023-07-20T05:35:29;18.90;72.00
18974;DHT22;9621;48.690;9.466;2023-07-20T05:37:56;18.80;71.80
18974;DHT22;9621;48.690;9.466;2023-07-20T05:40:23;18.80;72.40
18974;DHT22;9621;48.690;9.466;2023-07-20T05:42:50;18.80;72.30
18974;DHT22;9621;48.690;9.466;2023-07-20T05:45:19;18.80;72.10
18974;DHT22;9621;48.690;9.466;2023-07-20T05:47:46;18.90;72.00
18974;DHT22;9621;48.690;9.466;2023-07-20T05:50:15;18.90;71.60
18974;DHT22;9621;48.690;9.466;2023-07-20T05:52:42;18.90;71.50
18974;DHT22;9621;48.690;9.466;2023-07-20T05:55:09;19.00;71.20
18974;DHT22;9621;48.690;9.466;2023-07-20T05:57:35;19.10;71.20
18974;DHT22;9621;48.690;9.466;2023-07-20T06:00:08;19.10;71.00
18974;DHT22;9621;48.690;9.466;2023-07-20T06:02:35;19.10;70.60
18974;DHT22;9621;48.690;9.466;2023-07-20T06:05:02;19.20;70.90
18974;DHT22;9621;48.690;9.466;2023-07-20T06:07:31;19.20;70.30
18974;DHT22;9621;48.690;9.466;2023-07-20T06:09:58;19.30;69.90
18974;DHT22;9621;48.690;9.466;2023-07-20T06:12:25;19.30;69.80
18974;DHT22;9621;48.690;9.466;2023-07-20T06:14:52;19.30;69.90
18974;DHT22;9621;48.690;9.466;2023-07-20T06:17:20;19.40;69.60
18974;DHT22;9621;48.690;9.466;2023-07-20T06:19:46;19.40;70.10
18974;DHT22;9621;48.690;9.466;2023-07-20T06:22:14;19.50;70.50
18974;DHT22;9621;48.690;9.466;2023-07-20T06:24:42;19.60;70.40
18974;DHT22;9621;48.690;9.466;2023-07-20T06:27:09;19.70;70.00
18974;DHT22;9621;48.690;9.466;2023-07-20T06:29:37;19.80;70.00
18974;DHT22;9621;48.690;9.466;2023-07-20T06:32:05;19.90;70.00
18974;DHT22;9621;48.690;9.466;2023-07-20T06:34:33;20.10;69.70
18974;DHT22;9621;48.690;9.466;2023-07-20T06:37:02;20.20;69.80
18974;DHT22;9621;48.690;9.466;2023-07-20T06:39:30;20.20;69.00
18974;DHT22;9621;48.690;9.466;2023-07-20T06:41:58;20.30;68.60
18974;DHT22;9621;48.690;9.466;2023-07-20T06:44:25;20.40;68.60
18974;DHT22;9621;48.690;9.466;2023-07-20T06:46:52;20.50;68.10
18974;DHT22;9621;48.690;9.466;2023-07-20T06:49:25;20.50;67.90
18974;DHT22;9621;48.690;9.466;2023-07-20T06:51:52;20.60;67.10
18974;DHT22;9621;48.690;9.466;2023-07-20T06:54:19;20.70;67.20
18974;DHT22;9621;48.690;9.466;2023-07-20T06:56:46;20.70;67.30
18974;DHT22;9621;48.690;9.466;2023-07-20T06:59:14;20.80;67.10
18974;DHT22;9621;48.690;9.466;2023-07-20T07:01:41;20.90;67.20
18974;DHT22;9621;48.690;9.466;2023-07-20T07:04:09;21.10;66.90
18974;DHT22;9621;48.690;9.466;2023-07-20T07:06:36;21.30;66.70
18974;DHT22;9621;48.690;9.466;2023-07-20T07:09:03;21.40;66.20
18974;DHT22;9621;48.690;9.466;2023-07-20T07:11:32;21.60;65.50
18974;DHT22;9621;48.690;9.466;2023-07-20T07:13:59;21.70;64.80
18974;DHT22;9621;48.690;9.466;2023-07-20T07:16:27;21.80;64.90
18974;DHT22;9621;48.690;9.466;2023-07-20T07:18:54;21.90;64.10
18974;DHT22;9621;48.690;9.466;2023-07-20T07:21:21;22.00;64.90
18974;DHT22;9621;48.690;9.466;2023-07-20T07:23:48;22.20;64.10
18974;DHT22;9621;48.690;9.466;2023-07-20T07:26:15;22.30;63.60
18974;DHT22;9621;48.690;9.466;2023-07-20T07:28:42;22.60;63.10
18974;DHT22;9621;48.690;9.466;2023-07-20T07:31:09;22.90;63.00
18974;DHT22;9621;48.690;9.466;2023-07-20T07:33:37;23.20;62.50
18974;DHT22;9621;48.690;9.466;2023-07-20T07:36:04;23.60;62.00
18974;DHT22;9621;48.690;9.466;2023-07-20T07:38:31;24.10;61.20
18974;DHT22;9621;48.690;9.466;2023-07-20T07:40:59;24.40;60.30
18974;DHT22;9621;48.690;9.466;2023-07-20T07:43:26;24.90;59.30
18974;DHT22;9621;48.690;9.466;2023-07-20T07:45:54;25.20;58.50
18974;DHT22;9621;48.690;9.466;2023-07-20T07:48:21;25.50;57.80
18974;DHT22;9621;48.690;9.466;2023-07-20T07:50:49;25.60;57.40
18974;DHT22;9621;48.690;9.466;2023-07-20T07:53:16;25.70;56.40
18974;DHT22;9621;48.690;9.466;2023-07-20T07:55:43;25.70;56.50
18974;DHT22;9621;48.690;9.466;2023-07-20T07:58:10;25.70;56.30
18974;DHT22;9621;48.690;9.466;2023-07-20T08:00:37;25.60;56.00
18974;DHT22;9621;48.690;9.466;2023-07-20T08:03:06;25.60;56.00
18974;DHT22;9621;48.690;9.466;2023-07-20T08:05:33;25.60;55.80
18974;DHT22;9621;48.690;9.466;2023-07-20T08:08:01;25.80;55.70
18974;DHT22;9621;48.690;9.466;2023-07-20T08:10:29;26.00;55.50
18974;DHT22;9621;48.690;9.466;2023-07-20T08:12:56;26.30;55.00
18974;DHT22;9621;48.690;9.466;2023-07-20T08:15:23;26.40;54.60
18974;DHT22;9621;48.690;9.466;2023-07-20T08:17:50;26.40;54.50
18974;DHT22;9621;48.690;9.466;2023-07-20T08:20:17;26.40;53.80
18974;DHT22;9621;48.690;9.466;2023-07-20T08:22:44;26.40;53.60
18974;DHT22;9621;48.690;9.466;2023-07-20T08:25:13;26.40;53.70
18974;DHT22;9621;48.690;9.466;2023-07-20T08:27:40;26.30;53.60
18974;DHT22;9621;48.690;9.466;2023-07-20T08:30:08;26.50;54.20
18974;DHT22;9621;48.690;9.466;2023-07-20T08:32:35;26.80;53.40
18974;DHT22;9621;48.690;9.466;2023-07-20T08:35:02;26.80;53.00
18974;DHT22;9621;48.690;9.466;2023-07-20T08:37:29;26.80;52.80
18974;DHT22;9621;48.690;9.466;2023-07-20T08:39:56;26.70;52.30
18974;DHT22;9621;48.690;9.466;2023-07-20T08:42:24;26.60;52.50
18974;DHT22;9621;48.690;9.466;2023-07-20T08:44:52;26.60;52.70
18974;DHT22;9621;48.690;9.466;2023-07-20T08:47:21;26.50;52.40
18974;DHT22;9621;48.690;9.466;2023-07-20T08:49:49;26.50;52.60
18974;DHT22;9621;48.690;9.466;2023-07-20T08:52:16;26.40;52.90
18974;DHT22;9621;48.690;9.466;2023-07-20T08:54:43;26.60;52.30
18974;DHT22;9621;48.690;9.466;2023-07-20T08:57:13;26.80;52.00
18974;DHT22;9621;48.690;9.466;2023-07-20T08:59:42;27.20;51.00
18974;DHT22;9621;48.690;9.466;2023-07-20T09:02:12;27.70;51.00
18974;DHT22;9621;48.690;9.466;2023-07-20T09:04:41;28.10;50.00
18974;DHT22;9621;48.690;9.466;2023-07-20T09:07:09;28.20;49.50
18974;DHT22;9621;48.690;9.466;2023-07-20T09:09:39;28.20;49.40
18974;DHT22;9621;48.690;9.466;2023-07-20T09:12:13;28.30;49.20
18974;DHT22;9621;48.690;9.466;2023-07-20T09:14:44;28.50;48.80
18974;DHT22;9621;48.690;9.466;2023-07-20T09:17:13;28.70;48.80
18974;DHT22;9621;48.690;9.466;2023-07-20T09:19:46;29.00;47.90
18974;DHT22;9621;48.690;9.466;2023-07-20T09:22:13;29.20;46.80
18974;DHT22;9621;48.690;9.466;2023-07-20T09:24:40;29.40;46.80
18974;DHT22;9621;48.690;9.466;2023-07-20T09:27:08;29.50;46.30
18974;DHT22;9621;48.690;9.466;2023-07-20T09:29:49;29.60;46.20
18974;DHT22;9621;48.690;9.466;2023-07-20T09:32:18;29.60;45.20
18974;DHT22;9621;48.690;9.466;2023-07-20T09:34:46;29.60;45.60
18974;DHT22;9621;48.690;9.466;2023-07-20T09:37:13;29.40;45.60
18974;DHT22;9621;48.690;9.466;2023-07-20T09:39:43;29.20;45.90
18974;DHT22;9621;48.690;9.466;2023-07-20T09:42:11;28.80;45.50
18974;DHT22;9621;48.690;9.466;2023-07-20T09:44:39;28.40;46.00
18974;DHT22;9621;48.690;9.466;2023-07-20T09:47:07;28.00;46.50
18974;DHT22;9621;48.690;9.466;2023-07-20T09:49:39;27.60;46.90
18974;DHT22;9621;48.690;9.466;2023-07-20T09:52:07;27.70;47.30
18974;DHT22;9621;48.690;9.466;2023-07-20T09:54:36;27.80;47.10
18974;DHT22;9621;48.690;9.466;2023-07-20T09:57:04;28.00;46.60
18974;DHT22;9621;48.690;9.466;2023-07-20T09:59:33;28.20;46.50
18974;DHT22;9621;48.690;9.466;2023-07-20T10:02:02;28.30;46.50
18974;DHT22;9621;48.690;9.466;2023-07-20T10:04:34;28.20;45.60
18974;DHT22;9621;48.690;9.466;2023-07-20T10:07:05;28.00;46.20
18974;DHT22;9621;48.690;9.466;2023-07-20T10:09:37;27.70;46.70
18974;DHT22;9621;48.690;9.466;2023-07-20T10:12:06;27.60;46.80
18974;DHT22;9621;48.690;9.466;2023-07-20T10:14:36;27.60;47.10
18974;DHT22;9621;48.690;9.466;2023-07-20T10:17:06;27.70;47.40
18974;DHT22;9621;48.690;9.466;2023-07-20T10:19:44;27.90;47.10
18974;DHT22;9621;48.690;9.466;2023-07-20T10:22:14;28.00;45.50
18974;DHT22;9621;48.690;9.466;2023-07-20T10:24:46;28.00;46.20
18974;DHT22;9621;48.690;9.466;2023-07-20T10:27:14;28.10;45.90
18974;DHT22;9621;48.690;9.466;2023-07-20T10:29:41;28.30;45.20
18974;DHT22;9621;48.690;9.466;2023-07-20T10:32:09;28.50;44.40
18974;DHT22;9621;48.690;9.466;2023-07-20T10:34:38;28.70;44.30
18974;DHT22;9621;48.690;9.466;2023-07-20T10:37:05;28.70;44.50
18974;DHT22;9621;48.690;9.466;2023-07-20T10:39:33;28.80;44.10
18974;DHT22;9621;48.690;9.466;2023-07-20T10:42:00;28.80;44.20
18974;DHT22;9621;48.690;9.466;2023-07-20T10:44:29;28.90;44.10
18974;DHT22;9621;48.690;9.466;2023-07-20T10:47:00;28.80;43.50
18974;DHT22;9621;48.690;9.466;2023-07-20T10:49:27;28.50;43.30
18974;DHT22;9621;48.690;9.466;2023-07-20T10:52:00;28.10;43.80
18974;DHT22;9621;48.690;9.466;2023-07-20T10:54:47;27.70;45.60
18974;DHT22;9621;48.690;9.466;2023-07-20T10:57:28;27.60;44.40
18974;DHT22;9621;48.690;9.466;2023-07-20T11:00:10;27.70;44.00
18974;DHT22;9621;48.690;9.466;2023-07-20T11:02:46;27.80;44.50
18974;DHT22;9621;48.690;9.466;2023-07-20T11:05:34;27.90;45.70
18974;DHT22;9621;48.690;9.466;2023-07-20T11:08:05;28.20;44.20
18974;DHT22;9621;48.690;9.466;2023-07-20T11:10:32;28.60;44.00
18974;DHT22;9621;48.690;9.466;2023-07-20T11:13:20;29.00;43.20
18974;DHT22;9621;48.690;9.466;2023-07-20T11:16:01;29.20;42.80
18974;DHT22;9621;48.690;9.466;2023-07-20T11:18:28;29.40;42.00
18974;DHT22;9621;48.690;9.466;2023-07-20T11:20:56;29.40;41.70
18974;DHT22;9621;48.690;9.466;2023-07-20T11:23:24;29.40;41.80
18974;DHT22;9621;48.690;9.466;2023-07-20T11:25:52;29.40;41.70
18974;DHT22;9621;48.690;9.466;2023-07-20T11:28:19;29.30;41.80
18974;DHT22;9621;48.690;9.466;2023-07-20T11:30:51;29.20;41.60
18974;DHT22;9621;48.690;9.466;2023-07-20T11:33:19;29.20;42.30
18974;DHT22;9621;48.690;9.466;2023-07-20T11:35:46;29.10;41.80
18974;DHT22;9621;48.690;9.466;2023-07-20T11:38:13;29.00;41.50
18974;DHT22;9621;48.690;9.466;2023-07-20T11:40:44;28.90;41.80
18974;DHT22;9621;48.690;9.466;2023-07-20T11:43:11;28.90;42.10
18974;DHT22;9621;48.690;9.466;2023-07-20T11:45:38;28.90;41.60
18974;DHT22;9621;48.690;9.466;2023-07-20T11:48:05;28.90;42.30
18974;DHT22;9621;48.690;9.466;2023-07-20T11:50:38;28.90;40.90
18974;DHT22;9621;48.690;9.466;2023-07-20T11:53:06;28.90;40.80
18974;DHT22;9621;48.690;9.466;2023-07-20T11:55:33;28.90;40.90
18974;DHT22;9621;48.690;9.466;2023-07-20T11:58:05;28.90;40.30
18974;DHT22;9621;48.690;9.466;2023-07-20T12:00:32;28.90;40.50
18974;DHT22;9621;48.690;9.466;2023-07-20T12:03:00;28.70;40.20
18974;DHT22;9621;48.690;9.466;2023-07-20T12:05:27;28.40;41.00
18974;DHT22;9621;48.690;9.466;2023-07-20T12:07:54;28.10;41.50
18974;DHT22;9621;48.690;9.466;2023-07-20T12:10:25;27.80;41.50
18974;DHT22;9621;48.690;9.466;2023-07-20T12:12:52;27.70;42.10
18974;DHT22;9621;48.690;9.466;2023-07-20T12:15:24;27.80;42.20
18974;DHT22;9621;48.690;9.466;2023-07-20T12:17:53;27.80;42.40
18974;DHT22;9621;48.690;9.466;2023-07-20T12:20:28;28.00;42.00
18974;DHT22;9621;48.690;9.466;2023-07-20T12:22:58;28.00;41.20
18974;DHT22;9621;48.690;9.466;2023-07-20T12:25:41;28.00;41.70
18974;DHT22;9621;48.690;9.466;2023-07-20T12:28:10;28.00;41.80
18974;DHT22;9621;48.690;9.466;2023-07-20T12:30:39;28.20;41.90
18974;DHT22;9621;48.690;9.466;2023-07-20T12:33:06;28.20;40.70
18974;DHT22;9621;48.690;9.466;2023-07-20T12:35:34;28.10;39.90
18974;DHT22;9621;48.690;9.466;2023-07-20T12:38:01;28.00;40.90
18974;DHT22;9621;48.690;9.466;2023-07-20T12:40:28;28.00;41.20
18974;DHT22;9621;48.690;9.466;2023-07-20T12:42:56;28.00;40.90
18974;DHT22;9621;48.690;9.466;2023-07-20T12:45:24;27.80;40.50
18974;DHT22;9621;48.690;9.466;2023-07-20T12:47:52;27.70;40.40
18974;DHT22;9621;48.690;9.466;2023-07-20T12:50:19;27.50;41.40
18974;DHT22;9621;48.690;9.466;2023-07-20T12:52:46;27.40;41.50
18974;DHT22;9621;48.690;9.466;2023-07-20T12:55:13;27.60;41.80
18974;DHT22;9621;48.690;9.466;2023-07-20T12:57:41;27.80;42.20
18974;DHT22;9621;48.690;9.466;2023-07-20T13:00:09;28.10;41.50
18974;DHT22;9621;48.690;9.466;2023-07-20T13:02:37;28.40;40.80
18974;DHT22;9621;48.690;9.466;2023-07-20T13:05:06;28.70;39.80
18974;DHT22;9621;48.690;9.466;2023-07-20T13:07:35;28.70;38.10
18974;DHT22;9621;48.690;9.466;2023-07-20T13:10:02;28.70;38.50
18974;DHT22;9621;48.690;9.466;2023-07-20T13:12:30;28.60;39.20
18974;DHT22;9621;48.690;9.466;2023-07-20T13:14:58;28.60;39.50
18974;DHT22;9621;48.690;9.466;2023-07-20T13:17:26;28.60;39.60
18974;DHT22;9621;48.690;9.466;2023-07-20T13:19:53;28.80;40.10
18974;DHT22;9621;48.690;9.466;2023-07-20T13:22:22;29.00;39.50
18974;DHT22;9621;48.690;9.466;2023-07-20T13:24:49;29.10;39.40
18974;DHT22;9621;48.690;9.466;2023-07-20T13:27:17;29.20;39.20
18974;DHT22;9621;48.690;9.466;2023-07-20T13:29:44;29.30;38.60
18974;DHT22;9621;48.690;9.466;2023-07-20T13:32:13;29.20;38.10
18974;DHT22;9621;48.690;9.466;2023-07-20T13:34:40;29.00;38.10
18974;DHT22;9621;48.690;9.466;2023-07-20T13:37:07;28.90;38.20
18974;DHT22;9621;48.690;9.466;2023-07-20T13:39:36;28.70;38.20
18974;DHT22;9621;48.690;9.466;2023-07-20T13:42:04;28.40;38.00
18974;DHT22;9621;48.690;9.466;2023-07-20T13:44:31;28.30;38.10
18974;DHT22;9621;48.690;9.466;2023-07-20T13:46:58;28.30;39.50
18974;DHT22;9621;48.690;9.466;2023-07-20T13:49:25;28.30;39.30
18974;DHT22;9621;48.690;9.466;2023-07-20T13:51:55;28.40;39.10
18974;DHT22;9621;48.690;9.466;2023-07-20T13:54:29;28.60;38.70
18974;DHT22;9621;48.690;9.466;2023-07-20T13:56:57;28.70;38.30
18974;DHT22;9621;48.690;9.466;2023-07-20T13:59:24;28.80;38.40
18974;DHT22;9621;48.690;9.466;2023-07-20T14:02:01;28.90;37.40
18974;DHT22;9621;48.690;9.466;2023-07-20T14:04:31;28.70;36.50
18974;DHT22;9621;48.690;9.466;2023-07-20T14:06:58;28.70;37.20
18974;DHT22;9621;48.690;9.466;2023-07-20T14:09:25;28.40;37.40
18974;DHT22;9621;48.690;9.466;2023-07-20T14:11:51;28.30;38.10
18974;DHT22;9621;48.690;9.466;2023-07-20T14:14:20;28.20;38.90
18974;DHT22;9621;48.690;9.466;2023-07-20T14:16:47;28.30;39.10
18974;DHT22;9621;48.690;9.466;2023-07-20T14:19:14;28.40;39.20
18974;DHT22;9621;48.690;9.466;2023-07-20T14:21:41;28.50;39.10
18974;DHT22;9621;48.690;9.466;2023-07-20T14:24:08;28.70;38.60
18974;DHT22;9621;48.690;9.466;2023-07-20T14:26:35;28.70;38.10
18974;DHT22;9621;48.690;9.466;2023-07-20T14:29:01;28.70;37.60
18974;DHT22;9621;48.690;9.466;2023-07-20T14:31:30;28.70;37.70
18974;DHT22;9621;48.690;9.466;2023-07-20T14:33:56;28.70;37.90
18974;DHT22;9621;48.690;9.466;2023-07-20T14:36:23;28.80;38.20
18974;DHT22;9621;48.690;9.466;2023-07-20T14:38:50;28.90;38.10
18974;DHT22;9621;48.690;9.466;2023-07-20T14:41:17;29.10;37.40
18974;DHT22;9621;48.690;9.466;2023-07-20T14:43:47;29.20;36.20
18974;DHT22;9621;48.690;9.466;2023-07-20T14:46:14;29.10;36.20
18974;DHT22;9621;48.690;9.466;2023-07-20T14:48:42;29.00;36.50
18974;DHT22;9621;48.690;9.466;2023-07-20T14:51:10;28.80;36.50
18974;DHT22;9621;48.690;9.466;2023-07-20T14:53:36;28.60;36.10
18974;DHT22;9621;48.690;9.466;2023-07-20T14:56:04;28.50;36.70
18974;DHT22;9621;48.690;9.466;2023-07-20T14:58:31;28.30;37.00
18974;DHT22;9621;48.690;9.466;2023-07-20T15:00:58;28.20;36.70
18974;DHT22;9621;48.690;9.466;2023-07-20T15:03:25;28.20;37.10
18974;DHT22;9621;48.690;9.466;2023-07-20T15:05:53;28.20;37.00
18974;DHT22;9621;48.690;9.466;2023-07-20T15:08:21;28.20;37.10
18974;DHT22;9621;48.690;9.466;2023-07-20T15:10:48;28.20;37.80
18974;DHT22;9621;48.690;9.466;2023-07-20T15:13:15;28.40;37.90
18974;DHT22;9621;48.690;9.466;2023-07-20T15:15:42;28.50;37.10
18974;DHT22;9621;48.690;9.466;2023-07-20T15:18:09;28.60;36.30
18974;DHT22;9621;48.690;9.466;2023-07-20T15:20:36;28.60;36.40
18974;DHT22;9621;48.690;9.466;2023-07-20T15:23:04;28.50;36.80
18974;DHT22;9621;48.690;9.466;2023-07-20T15:25:32;28.40;36.80
18974;DHT22;9621;48.690;9.466;2023-07-20T15:27:59;28.30;36.40
18974;DHT22;9621;48.690;9.466;2023-07-20T15:30:27;28.10;36.20
18974;DHT22;9621;48.690;9.466;2023-07-20T15:32:54;27.90;36.40
18974;DHT22;9621;48.690;9.466;2023-07-20T15:35:22;27.60;36.90
18974;DHT22;9621;48.690;9.466;2023-07-20T15:37:49;27.40;37.30
18974;DHT22;9621;48.690;9.466;2023-07-20T15:40:17;27.30;37.80
18974;DHT22;9621;48.690;9.466;2023-07-20T15:42:44;27.10;37.70
18974;DHT22;9621;48.690;9.466;2023-07-20T15:45:11;27.10;37.60
18974;DHT22;9621;48.690;9.466;2023-07-20T15:47:38;26.90;38.00
18974;DHT22;9621;48.690;9.466;2023-07-20T15:50:06;26.80;38.80
18974;DHT22;9621;48.690;9.466;2023-07-20T15:52:33;26.70;38.00